createdAt,value
2022-11-05T00:00:37.774Z,29.00
2022-11-05T00:03:30.224Z,25.05
2022-11-05T00:06:27.935Z,25.48
2022-11-05T00:09:14.196Z,30.38
2022-11-05T00:12:00.278Z,24.42
2022-11-05T00:14:46.391Z,34.13
2022-11-05T00:17:16.412Z,30.52
2022-11-05T00:19:44.909Z,25.05
2022-11-05T00:22:31.218Z,30.88
2022-11-05T00:25:18.127Z,44.88
2022-11-05T00:27:48.196Z,28.02
2022-11-05T00:30:19.387Z,29.88
2022-11-05T00:32:51.062Z,25.02
2022-11-05T00:35:23.194Z,26.20
2022-11-05T00:37:51.765Z,30.63
2022-11-05T00:40:20.835Z,27.23
2022-11-05T00:43:07.153Z,33.97
2022-11-05T00:45:35.818Z,33.17
2022-11-05T00:48:24.114Z,26.65
2022-11-05T00:50:52.911Z,25.33
2022-11-05T00:53:21.564Z,30.63
2022-11-05T00:55:49.926Z,27.63
2022-11-05T00:58:20.130Z,30.88
2022-11-05T01:03:22.070Z,25.83
2022-11-05T01:05:52.279Z,30.52
2022-11-05T01:08:22.443Z,26.52
2022-11-05T01:10:52.868Z,31.08
2022-11-05T01:13:23.495Z,25.35
2022-11-05T01:15:52.737Z,26.13
2022-11-05T01:18:23.991Z,26.95
2022-11-05T01:20:52.822Z,24.73
2022-11-05T01:23:21.771Z,26.83
2022-11-05T01:25:50.333Z,26.13
2022-11-05T01:28:19.120Z,31.02
2022-11-05T01:30:47.780Z,27.83
2022-11-05T01:33:16.433Z,35.47
2022-11-05T01:35:46.452Z,32.38
2022-11-05T01:38:15.140Z,29.10
2022-11-05T01:40:44.295Z,28.45
2022-11-05T01:43:16.191Z,32.97
2022-11-05T01:45:46.275Z,32.47
2022-11-05T01:48:17.446Z,31.42
2022-11-05T01:50:53.568Z,26.58
2022-11-05T01:53:26.401Z,30.40
2022-11-05T01:55:58.519Z,33.80
2022-11-05T01:58:31.893Z,25.08
2022-11-05T02:01:00.629Z,27.85
2022-11-05T02:03:30.246Z,21.20
2022-11-05T02:06:01.247Z,23.83
2022-11-05T02:08:47.529Z,24.60
2022-11-05T02:11:18.611Z,37.50
2022-11-05T02:13:47.893Z,24.38
2022-11-05T02:16:29.237Z,28.33
2022-11-05T02:19:01.298Z,31.83
2022-11-05T02:22:01.150Z,27.52
2022-11-05T02:25:03.353Z,26.83
2022-11-05T02:28:07.007Z,33.25
2022-11-05T02:30:43.911Z,28.88
2022-11-05T02:33:23.060Z,32.30
2022-11-05T02:36:15.303Z,27.85
2022-11-05T02:38:50.216Z,35.95
2022-11-05T02:41:25.251Z,26.48
2022-11-05T02:44:04.046Z,30.10
2022-11-05T02:46:43.830Z,36.15
2022-11-05T02:49:21.003Z,27.63
2022-11-05T02:51:55.085Z,22.60
2022-11-05T02:54:26.556Z,28.92
2022-11-05T02:56:57.033Z,29.13
2022-11-05T03:01:55.530Z,34.30
2022-11-05T03:04:27.640Z,27.25
2022-11-05T03:07:23.778Z,33.97
2022-11-05T03:10:15.553Z,32.40
2022-11-05T03:12:52.185Z,33.55
2022-11-05T03:15:28.437Z,24.05
2022-11-05T03:18:03.519Z,31.60
2022-11-05T03:20:37.349Z,29.23
2022-11-05T03:23:11.834Z,39.85
2022-11-05T03:25:45.216Z,28.08
2022-11-05T03:28:15.278Z,28.10
2022-11-05T03:30:44.580Z,29.52
2022-11-05T03:33:19.086Z,26.23
2022-11-05T03:35:49.418Z,26.77
2022-11-05T03:38:22.328Z,30.17
2022-11-05T03:40:53.512Z,34.33
2022-11-05T03:43:24.491Z,32.53
2022-11-05T03:45:57.627Z,32.05
2022-11-05T03:48:29.953Z,32.72
2022-11-05T03:51:02.473Z,33.15
2022-11-05T03:53:34.696Z,32.00
2022-11-05T03:56:05.390Z,35.03
2022-11-05T03:58:33.749Z,29.50
2022-11-05T04:01:03.474Z,27.10
2022-11-05T04:03:36.672Z,32.47
2022-11-05T04:06:23.704Z,30.10
2022-11-05T04:09:09.770Z,33.70
2022-11-05T04:11:55.920Z,35.22
2022-11-05T04:14:26.343Z,33.85
2022-11-05T04:17:10.387Z,28.92
2022-11-05T04:19:59.324Z,37.00
2022-11-05T04:22:46.859Z,33.35
2022-11-05T04:25:16.621Z,37.25
2022-11-05T04:27:45.672Z,32.22
2022-11-05T04:30:20.721Z,36.70
2022-11-05T04:33:00.310Z,40.45
2022-11-05T04:35:31.703Z,40.60
2022-11-05T04:38:00.340Z,34.97
2022-11-05T04:40:29.171Z,40.45
2022-11-05T04:42:58.543Z,37.22
2022-11-05T04:45:28.759Z,40.53
2022-11-05T04:47:57.556Z,29.58
2022-11-05T04:50:26.222Z,37.40
2022-11-05T04:52:55.935Z,28.55
2022-11-05T04:55:24.641Z,42.47
2022-11-05T04:57:54.033Z,39.58
2022-11-05T05:00:23.805Z,40.53
2022-11-05T05:02:52.524Z,41.05
2022-11-05T05:05:22.684Z,46.40
2022-11-05T05:07:51.033Z,34.92
2022-11-05T05:10:21.156Z,39.13
2022-11-05T05:12:49.884Z,33.58
2022-11-05T05:15:18.626Z,38.70
2022-11-05T05:17:51.813Z,37.38
2022-11-05T05:20:38.148Z,40.05
2022-11-05T05:23:06.711Z,37.22
2022-11-05T05:25:36.849Z,41.67
2022-11-05T05:28:05.673Z,37.65
2022-11-05T05:30:34.342Z,40.13
2022-11-05T05:33:04.097Z,40.60
2022-11-05T05:35:33.760Z,42.67
2022-11-05T05:38:02.451Z,42.83
2022-11-05T05:40:30.709Z,40.72
2022-11-05T05:43:00.739Z,40.13
2022-11-05T05:45:29.404Z,40.30
2022-11-05T05:47:58.109Z,42.80
2022-11-05T05:50:26.702Z,43.35
2022-11-05T05:52:55.131Z,48.70
2022-11-05T05:55:23.709Z,42.45
2022-11-05T05:57:52.306Z,54.25
2022-11-05T06:00:22.609Z,52.00
2022-11-05T06:02:51.292Z,48.28
2022-11-05T06:05:19.913Z,43.20
2022-11-05T06:07:48.315Z,51.72
2022-11-05T06:10:17.030Z,44.45
2022-11-05T06:12:45.672Z,52.40
2022-11-05T06:15:14.404Z,55.28
2022-11-05T06:17:45.846Z,41.00
2022-11-05T06:20:14.605Z,48.90
2022-11-05T06:22:42.852Z,44.50
2022-11-05T06:25:11.842Z,49.85
2022-11-05T06:27:40.430Z,54.08
2022-11-05T06:30:10.443Z,44.70
2022-11-05T06:32:39.298Z,59.00
2022-11-05T06:35:10.017Z,55.10
2022-11-05T06:40:08.274Z,45.58
2022-11-05T06:42:36.999Z,39.35
2022-11-05T06:45:06.596Z,47.65
2022-11-05T06:47:35.246Z,36.30
2022-11-05T06:50:04.016Z,43.58
2022-11-05T06:52:38.325Z,39.05
2022-11-05T06:55:10.425Z,43.78
2022-11-05T06:57:39.450Z,48.47
2022-11-05T07:00:10.850Z,37.90
2022-11-05T07:02:39.452Z,38.03
2022-11-05T07:05:11.238Z,42.92
2022-11-05T07:07:41.086Z,37.78
2022-11-05T07:10:13.353Z,37.65
2022-11-05T07:12:42.087Z,33.10
2022-11-05T07:15:11.885Z,49.70
2022-11-05T07:17:40.763Z,42.08
2022-11-05T07:20:10.819Z,39.28
2022-11-05T07:22:40.632Z,45.85
2022-11-05T07:25:10.029Z,38.53
2022-11-05T07:27:39.556Z,36.28
2022-11-05T07:30:10.147Z,43.10
2022-11-05T07:32:39.756Z,33.33
2022-11-05T07:35:09.527Z,40.83
2022-11-05T07:37:45.540Z,42.67
2022-11-05T07:40:15.735Z,34.78
2022-11-05T07:42:45.144Z,36.13
2022-11-05T07:45:14.042Z,38.95
2022-11-05T07:47:47.327Z,39.58
2022-11-05T07:50:16.951Z,44.30
2022-11-05T07:52:47.987Z,34.17
2022-11-05T07:55:17.311Z,37.63
2022-11-05T07:57:47.004Z,39.22
2022-11-05T08:00:17.405Z,45.47
2022-11-05T08:05:15.963Z,41.33
2022-11-05T08:07:44.349Z,40.15
2022-11-05T08:10:14.476Z,40.45
2022-11-05T08:12:43.104Z,53.42
2022-11-05T08:15:12.133Z,39.28
2022-11-05T08:17:41.864Z,42.47
2022-11-05T08:20:11.890Z,45.22
2022-11-05T08:22:43.744Z,41.90
2022-11-05T08:25:12.644Z,38.83
2022-11-05T08:27:42.755Z,40.45
2022-11-05T08:30:12.214Z,44.15
2022-11-05T08:32:40.875Z,42.38
2022-11-05T08:35:09.784Z,40.30
2022-11-05T08:37:38.125Z,39.03
2022-11-05T08:40:08.143Z,42.88
2022-11-05T08:42:36.915Z,49.45
2022-11-05T08:45:08.314Z,49.97
2022-11-05T08:47:37.020Z,38.95
2022-11-05T08:50:06.051Z,41.25
2022-11-05T08:52:34.321Z,38.97
2022-11-05T08:55:03.067Z,43.72
2022-11-05T08:57:31.808Z,47.80
2022-11-05T09:00:00.433Z,32.47
2022-11-05T09:02:30.714Z,47.47
2022-11-05T09:28:14.773Z,40.80
2022-11-05T09:30:47.251Z,38.72
2022-11-05T09:33:18.113Z,41.83
2022-11-05T09:35:46.883Z,47.70
2022-11-05T09:38:15.719Z,41.85
2022-11-05T09:40:46.638Z,45.30
2022-11-05T09:43:18.949Z,39.97
2022-11-05T09:45:48.569Z,51.22
2022-11-05T09:48:22.045Z,45.63
2022-11-05T09:50:52.019Z,48.22
2022-11-05T09:53:22.097Z,37.53
2022-11-05T09:55:52.164Z,51.70
2022-11-05T10:00:58.714Z,49.20
2022-11-05T10:03:31.033Z,43.28
2022-11-05T10:06:05.498Z,46.67
2022-11-05T10:08:36.459Z,30.70
2022-11-05T10:11:08.280Z,44.50
2022-11-05T10:13:39.411Z,43.88
2022-11-05T10:16:22.151Z,44.47
2022-11-05T10:18:55.302Z,46.78
2022-11-05T10:21:44.351Z,47.85
2022-11-05T10:24:15.784Z,52.03
2022-11-05T10:26:46.584Z,43.60
2022-11-05T10:29:19.224Z,40.00
2022-11-05T10:31:47.654Z,50.53
2022-11-05T10:34:19.049Z,53.80
2022-11-05T10:36:47.721Z,51.80
2022-11-05T10:39:17.921Z,49.42
2022-11-05T10:42:06.096Z,49.47
2022-11-05T10:44:39.261Z,43.97
2022-11-05T10:47:34.517Z,50.88
2022-11-05T10:50:06.303Z,49.80
2022-11-05T10:52:37.256Z,44.75
2022-11-05T10:55:12.352Z,52.35
2022-11-05T10:57:42.559Z,47.75
2022-11-05T11:00:25.371Z,54.35
2022-11-05T11:02:56.378Z,56.75
2022-11-05T11:05:28.925Z,55.03
2022-11-05T11:07:59.826Z,51.83
2022-11-05T11:10:29.445Z,48.13
2022-11-05T11:12:58.806Z,53.07
2022-11-05T11:15:28.915Z,53.00
2022-11-05T11:17:57.990Z,48.13
2022-11-05T11:20:29.870Z,52.53
2022-11-05T11:23:03.072Z,55.67
2022-11-05T11:25:34.893Z,54.03
2022-11-05T11:28:05.371Z,49.65
2022-11-05T11:30:35.277Z,49.58
2022-11-05T11:33:09.005Z,53.30
2022-11-05T11:35:40.124Z,51.10
2022-11-05T11:38:12.849Z,58.80
2022-11-05T11:40:41.208Z,62.28
2022-11-05T11:43:16.653Z,57.20
2022-11-05T11:45:47.641Z,57.00
2022-11-05T11:48:19.586Z,60.47
2022-11-05T11:50:50.364Z,58.88
2022-11-05T11:53:28.042Z,60.85
2022-11-05T11:56:02.632Z,57.55
2022-11-05T11:58:39.900Z,59.50
2022-11-05T12:01:21.844Z,61.28
2022-11-05T12:03:52.813Z,57.80
2022-11-05T12:06:28.124Z,63.78
2022-11-05T12:09:06.724Z,59.92
2022-11-05T12:11:40.522Z,59.03
2022-11-05T12:14:19.483Z,61.20
2022-11-05T12:16:59.321Z,73.47
2022-11-05T12:19:59.693Z,68.10
2022-11-05T12:22:41.324Z,59.58
2022-11-05T12:25:16.039Z,57.47
2022-11-05T12:27:59.259Z,62.97
2022-11-05T12:30:29.377Z,60.60
2022-11-05T12:33:15.640Z,65.30
2022-11-05T12:35:58.203Z,63.00
2022-11-05T12:38:48.073Z,62.67
2022-11-05T12:41:22.588Z,62.63
2022-11-05T12:44:01.940Z,56.97
2022-11-05T12:46:36.615Z,66.53
2022-11-05T12:49:24.585Z,63.95
2022-11-05T12:52:06.479Z,59.10
2022-11-05T12:54:47.113Z,57.83
2022-11-05T12:57:16.505Z,69.28
2022-11-05T12:59:52.245Z,65.50
2022-11-05T13:02:26.664Z,58.88
2022-11-05T13:04:58.974Z,58.35
2022-11-05T13:07:31.442Z,63.25
2022-11-05T13:10:05.533Z,62.78
2022-11-05T13:12:37.761Z,59.45
2022-11-05T13:15:10.454Z,60.45
2022-11-05T13:17:44.749Z,74.93
2022-11-05T13:20:18.213Z,62.47
2022-11-05T13:22:48.121Z,61.88
2022-11-05T13:25:22.610Z,69.32
2022-11-05T13:27:56.398Z,58.78
2022-11-05T13:30:26.848Z,55.70
2022-11-05T13:35:29.473Z,61.75
2022-11-05T13:38:17.491Z,63.60
2022-11-05T13:40:57.596Z,64.25
2022-11-05T13:43:35.560Z,68.78
2022-11-05T13:46:25.053Z,72.60
2022-11-05T13:49:06.907Z,73.43
2022-11-05T13:51:53.648Z,69.38
2022-11-05T13:54:54.749Z,64.47
2022-11-05T13:57:46.812Z,67.10
2022-11-05T14:00:18.689Z,63.95
2022-11-05T14:02:51.096Z,67.55
2022-11-05T14:05:26.980Z,86.18
2022-11-05T14:07:56.122Z,79.22
2022-11-05T14:10:32.848Z,74.97
2022-11-05T14:13:09.984Z,85.90
2022-11-05T14:15:39.016Z,93.22
2022-11-05T14:18:19.846Z,87.18
2022-11-05T14:20:59.839Z,91.60
2022-11-05T14:23:38.004Z,86.85
2022-11-05T14:26:18.700Z,77.88
2022-11-05T14:29:04.829Z,65.75
2022-11-05T14:34:55.942Z,70.03
2022-11-05T14:37:29.416Z,64.22
2022-11-05T14:39:58.871Z,56.63
2022-11-05T14:42:29.990Z,65.10
2022-11-05T14:45:24.608Z,62.72
2022-11-05T14:47:55.436Z,57.83
2022-11-05T14:50:28.952Z,64.55
2022-11-05T14:52:59.848Z,73.72
2022-11-05T14:55:30.833Z,67.20
2022-11-05T14:58:22.016Z,72.03
2022-11-05T15:00:52.188Z,65.90
2022-11-05T15:03:47.439Z,74.38
2022-11-05T15:06:25.846Z,76.65
2022-11-05T15:09:23.097Z,69.03
2022-11-05T15:12:02.568Z,79.85
2022-11-05T15:14:33.904Z,79.90
2022-11-05T15:17:13.658Z,80.13
2022-11-05T15:19:43.187Z,75.40
2022-11-05T15:22:23.073Z,77.25
2022-11-05T15:24:52.023Z,93.15
2022-11-05T15:27:35.577Z,85.93
2022-11-05T15:30:12.070Z,82.28
2022-11-05T15:32:42.166Z,87.05
2022-11-05T15:35:23.563Z,69.65
2022-11-05T15:37:57.287Z,84.00
2022-11-05T15:40:30.816Z,76.63
2022-11-05T15:43:17.644Z,89.00
2022-11-05T15:45:59.291Z,78.03
2022-11-05T15:48:29.320Z,78.38
2022-11-05T15:50:58.053Z,74.97
2022-11-05T15:54:23.954Z,72.70
2022-11-05T15:56:49.271Z,76.15
2022-11-05T15:59:19.671Z,71.60
2022-11-05T16:01:49.752Z,76.13
2022-11-05T16:04:23.068Z,65.28
2022-11-05T16:06:55.431Z,70.68
2022-11-05T16:09:27.051Z,73.68
2022-11-05T16:12:14.038Z,81.57
2022-11-05T16:14:43.118Z,76.63
2022-11-05T16:17:19.237Z,76.00
2022-11-05T16:19:49.851Z,76.10
2022-11-05T16:22:18.993Z,77.63
2022-11-05T16:24:47.756Z,70.60
2022-11-05T16:27:19.720Z,81.18
2022-11-05T16:29:51.371Z,81.50
2022-11-05T16:32:28.357Z,78.60
2022-11-05T16:35:01.601Z,95.22
2022-11-05T16:37:33.123Z,88.90
2022-11-05T16:40:03.719Z,70.35
2022-11-05T16:42:40.384Z,74.80
2022-11-05T16:45:13.718Z,71.78
2022-11-05T16:47:42.878Z,67.30
2022-11-05T16:50:28.314Z,65.82
2022-11-05T16:52:56.684Z,55.40
2022-11-05T16:55:25.398Z,59.70
2022-11-05T16:57:55.479Z,52.28
2022-11-05T17:00:25.382Z,48.95
2022-11-05T17:02:54.703Z,50.38
2022-11-05T17:05:27.374Z,51.92
2022-11-05T17:07:57.701Z,52.85
2022-11-05T17:10:27.183Z,58.70
2022-11-05T17:12:55.853Z,48.67
2022-11-05T17:15:26.435Z,47.88
2022-11-05T17:17:56.720Z,57.33
2022-11-05T17:20:36.793Z,63.95
2022-11-05T17:23:10.711Z,72.70
2022-11-05T17:25:39.898Z,63.13
2022-11-05T17:28:09.351Z,62.85
2022-11-05T17:30:41.382Z,70.28
2022-11-05T17:33:11.310Z,66.22
2022-11-05T17:35:40.857Z,74.30
2022-11-05T17:38:11.338Z,66.70
2022-11-05T17:40:40.276Z,74.70
2022-11-05T17:43:09.016Z,72.95
2022-11-05T17:45:43.900Z,66.70
2022-11-05T17:48:12.894Z,65.85
2022-11-05T17:50:42.444Z,69.55
2022-11-05T17:53:13.613Z,62.47
2022-11-05T17:55:42.777Z,58.50
2022-11-05T17:58:11.567Z,55.38
2022-11-05T18:00:41.010Z,60.70
2022-11-05T18:03:11.112Z,62.42
2022-11-05T18:08:09.582Z,58.70
2022-11-05T18:10:39.850Z,52.90
2022-11-05T18:13:08.779Z,59.40
2022-11-05T18:15:41.229Z,47.92
2022-11-05T18:18:10.472Z,54.10
2022-11-05T18:20:39.520Z,55.08
2022-11-05T18:23:08.179Z,43.40
2022-11-05T18:25:38.174Z,43.38
2022-11-05T18:30:35.540Z,32.03
2022-11-05T18:33:04.175Z,31.55
2022-11-05T18:35:32.768Z,29.70
2022-11-05T18:38:01.492Z,27.33
2022-11-05T18:40:29.828Z,31.25
2022-11-05T18:42:59.755Z,22.60
2022-11-05T18:45:29.918Z,24.90
2022-11-05T18:50:27.125Z,24.65
2022-11-05T18:52:55.500Z,22.98
2022-11-05T18:55:24.503Z,21.52
2022-11-05T18:57:53.211Z,24.17
2022-11-05T19:00:23.526Z,22.90
2022-11-05T19:05:29.793Z,23.55
2022-11-05T19:07:58.507Z,24.45
2022-11-05T19:10:27.483Z,24.90
2022-11-05T19:12:56.255Z,21.98
2022-11-05T19:15:26.243Z,20.15
2022-11-05T19:17:54.904Z,22.13
2022-11-05T19:20:23.568Z,19.02
2022-11-05T19:22:51.864Z,19.92
2022-11-05T19:25:20.535Z,23.73
2022-11-05T19:27:49.209Z,17.52
2022-11-05T19:30:17.806Z,25.02
2022-11-05T19:32:47.869Z,19.55
2022-11-05T19:35:16.601Z,18.10
2022-11-05T19:37:45.166Z,20.23
2022-11-05T19:40:13.786Z,24.02
2022-11-05T19:42:42.413Z,26.77
2022-11-05T19:45:38.313Z,21.02
2022-11-05T19:48:01.730Z,22.67
2022-11-05T19:50:30.291Z,27.00
2022-11-05T19:52:58.982Z,19.73
2022-11-05T19:55:27.382Z,19.80
2022-11-05T19:57:56.066Z,23.05
2022-11-05T20:00:24.781Z,20.40
2022-11-05T20:02:53.603Z,24.85
2022-11-05T20:05:23.705Z,23.27
2022-11-05T20:07:53.225Z,21.30
2022-11-05T20:10:22.603Z,23.52
2022-11-05T20:12:51.421Z,28.63
2022-11-05T20:15:20.241Z,19.83
2022-11-05T20:17:52.432Z,25.77
2022-11-05T20:20:21.076Z,34.10
2022-11-05T20:22:52.844Z,23.65
2022-11-05T20:25:21.543Z,21.00
2022-11-05T20:27:50.209Z,26.35
2022-11-05T20:30:19.714Z,28.58
2022-11-05T20:32:48.329Z,25.27
2022-11-05T20:35:17.144Z,26.58
2022-11-05T20:37:48.493Z,29.35
2022-11-05T20:40:23.141Z,22.83
2022-11-05T20:42:51.797Z,23.50
2022-11-05T20:45:20.415Z,28.70
2022-11-05T20:47:49.027Z,27.08
2022-11-05T20:50:18.026Z,29.52
2022-11-05T20:52:46.584Z,29.77
2022-11-05T20:55:15.274Z,29.73
2022-11-05T20:57:45.277Z,29.83
2022-11-05T21:00:15.243Z,32.03
2022-11-05T21:02:43.957Z,33.85
2022-11-05T21:05:12.747Z,31.77
2022-11-05T21:07:41.085Z,31.75
2022-11-05T21:10:10.115Z,23.85
2022-11-05T21:12:38.758Z,20.63
2022-11-05T21:15:10.621Z,32.20
2022-11-05T21:17:39.291Z,28.63
2022-11-05T21:20:08.756Z,28.60
2022-11-05T21:22:37.039Z,34.95
2022-11-05T21:25:06.284Z,28.90
2022-11-05T21:27:34.948Z,29.15
2022-11-05T21:30:03.578Z,42.78
2022-11-05T21:32:33.795Z,32.35
2022-11-05T21:35:02.656Z,30.80
2022-11-05T21:37:31.206Z,37.20
2022-11-05T21:39:59.805Z,35.47
2022-11-05T21:42:29.969Z,39.58
2022-11-05T21:45:00.575Z,41.65
2022-11-05T21:47:30.569Z,29.27
2022-11-05T21:50:00.640Z,28.83
2022-11-05T21:52:46.509Z,31.67
2022-11-05T21:55:35.925Z,27.88
2022-11-05T21:58:28.742Z,38.30
2022-11-05T22:00:57.354Z,30.20
2022-11-05T22:03:25.982Z,37.47
2022-11-05T22:05:57.328Z,34.13
2022-11-05T22:08:25.968Z,35.65
2022-11-05T22:10:54.270Z,33.35
2022-11-05T22:13:22.930Z,34.13
2022-11-05T22:15:57.711Z,32.83
2022-11-05T22:18:26.552Z,33.22
2022-11-05T22:20:56.568Z,28.85
2022-11-05T22:23:25.226Z,33.10
2022-11-05T22:26:00.100Z,31.60
2022-11-05T22:28:28.723Z,32.47
2022-11-05T22:30:57.347Z,38.35
2022-11-05T22:33:26.198Z,39.08
2022-11-05T22:35:56.286Z,37.63
2022-11-05T22:38:25.051Z,37.20
2022-11-05T22:40:53.592Z,40.33
2022-11-05T22:43:22.258Z,38.45
2022-11-05T22:45:50.892Z,36.70
2022-11-05T22:48:19.520Z,34.88
2022-11-05T22:50:48.121Z,37.45
2022-11-05T22:53:18.091Z,39.97
2022-11-05T22:55:46.336Z,36.73
2022-11-05T22:58:15.445Z,40.38
2022-11-05T23:00:44.435Z,56.00
2022-11-05T23:03:13.255Z,31.35
2022-11-05T23:05:42.015Z,34.75
2022-11-05T23:08:28.613Z,35.45
2022-11-05T23:11:16.374Z,40.05
2022-11-05T23:13:44.942Z,38.20
2022-11-05T23:16:30.803Z,36.20
2022-11-05T23:19:17.096Z,31.50
2022-11-05T23:22:03.379Z,37.13
2022-11-05T23:24:32.057Z,41.05
2022-11-05T23:27:02.086Z,40.70
2022-11-05T23:29:31.199Z,38.38
2022-11-05T23:32:17.285Z,36.88
2022-11-05T23:34:45.646Z,35.97
2022-11-05T23:37:31.636Z,36.25
2022-11-05T23:40:00.271Z,33.72
2022-11-05T23:42:47.723Z,43.05
2022-11-05T23:45:34.172Z,44.20
2022-11-05T23:48:20.029Z,38.55
2022-11-05T23:50:52.668Z,48.60
2022-11-05T23:53:21.380Z,35.88
2022-11-05T23:55:49.857Z,39.40
2022-11-05T23:58:20.316Z,46.53
